createdAt,value
2022-11-07T00:02:17.818Z,95737.88
2022-11-07T00:04:44.862Z,95737.03
2022-11-07T00:07:11.330Z,95745.97
2022-11-07T00:09:37.939Z,95744.63
2022-11-07T00:12:04.610Z,95738.25
2022-11-07T00:14:31.198Z,95735.69
2022-11-07T00:16:57.679Z,95742.69
2022-11-07T00:19:24.141Z,95745.06
2022-11-07T00:21:50.636Z,95745.69
2022-11-07T00:24:18.340Z,95737.38
2022-11-07T00:26:46.307Z,95746.06
2022-11-07T00:29:14.404Z,95751.97
2022-11-07T00:31:41.107Z,95769.16
2022-11-07T00:34:07.557Z,95755.00
2022-11-07T00:36:34.063Z,95760.97
2022-11-07T00:39:00.552Z,95754.47
2022-11-07T00:41:27.745Z,95764.91
2022-11-07T00:43:54.630Z,95769.00
2022-11-07T00:46:21.537Z,95770.88
2022-11-07T00:48:48.365Z,95771.41
2022-11-07T00:51:21.411Z,95767.50
2022-11-07T00:53:48.528Z,95758.75
2022-11-07T00:56:18.463Z,95765.22
2022-11-07T00:58:45.071Z,95768.88
2022-11-07T01:01:16.780Z,95770.69
2022-11-07T01:03:43.751Z,95762.22
2022-11-07T01:06:10.990Z,95760.84
2022-11-07T01:08:37.460Z,95755.47
2022-11-07T01:11:06.768Z,95758.09
2022-11-07T01:13:34.135Z,95748.63
2022-11-07T01:16:00.719Z,95759.28
2022-11-07T01:18:27.709Z,95757.47
2022-11-07T01:20:54.167Z,95760.66
2022-11-07T01:23:21.096Z,95759.84
2022-11-07T01:25:47.562Z,95763.75
2022-11-07T01:28:14.083Z,95757.56
2022-11-07T01:30:44.847Z,95757.22
2022-11-07T01:33:12.848Z,95749.91
2022-11-07T01:35:40.729Z,95760.50
2022-11-07T01:38:07.724Z,95759.22
2022-11-07T01:40:34.456Z,95769.16
2022-11-07T01:43:00.894Z,95759.56
2022-11-07T01:45:29.945Z,95760.28
2022-11-07T01:48:02.021Z,95753.00
2022-11-07T01:50:30.364Z,95758.69
2022-11-07T01:52:57.824Z,95759.75
2022-11-07T01:55:34.993Z,95757.47
2022-11-07T01:58:07.069Z,95752.56
2022-11-07T02:00:37.019Z,95754.56
2022-11-07T02:03:09.593Z,95749.97
2022-11-07T02:05:46.831Z,95746.06
2022-11-07T02:08:16.132Z,95740.63
2022-11-07T02:10:43.967Z,95740.13
2022-11-07T02:13:26.801Z,95736.84
2022-11-07T02:15:53.702Z,95735.94
2022-11-07T02:18:22.238Z,95730.47
2022-11-07T02:20:52.150Z,95735.25
2022-11-07T02:23:26.711Z,95731.25
2022-11-07T02:25:54.663Z,95726.13
2022-11-07T02:28:23.557Z,95714.44
2022-11-07T02:30:50.066Z,95714.88
2022-11-07T02:33:22.656Z,95735.34
2022-11-07T02:35:53.274Z,95734.19
2022-11-07T02:38:31.228Z,95728.97
2022-11-07T02:41:03.548Z,95723.59
2022-11-07T02:43:33.462Z,95719.88
2022-11-07T02:46:05.658Z,95722.31
2022-11-07T02:48:40.325Z,95713.66
2022-11-07T02:51:06.795Z,95714.50
2022-11-07T02:53:33.275Z,95721.63
2022-11-07T02:55:59.794Z,95726.69
2022-11-07T02:58:26.266Z,95719.41
2022-11-07T03:00:52.790Z,95719.03
2022-11-07T03:03:19.391Z,95719.03
2022-11-07T03:05:45.823Z,95708.97
2022-11-07T03:08:12.260Z,95704.84
2022-11-07T03:10:38.700Z,95701.94
2022-11-07T03:13:05.219Z,95705.56
2022-11-07T03:15:31.654Z,95705.56
2022-11-07T03:17:59.258Z,95716.47
2022-11-07T03:20:25.796Z,95709.56
2022-11-07T03:22:52.267Z,95709.38
2022-11-07T03:25:18.712Z,95704.28
2022-11-07T03:27:46.912Z,95704.34
2022-11-07T03:30:13.470Z,95707.84
2022-11-07T03:32:39.946Z,95712.34
2022-11-07T03:35:07.162Z,95716.78
2022-11-07T03:37:33.614Z,95724.19
2022-11-07T03:40:00.099Z,95723.56
2022-11-07T03:42:26.558Z,95737.75
2022-11-07T03:44:53.000Z,95737.25
2022-11-07T03:47:19.595Z,95737.09
2022-11-07T03:49:46.089Z,95743.50
2022-11-07T03:52:12.555Z,95750.31
2022-11-07T03:54:39.009Z,95743.03
2022-11-07T03:57:05.510Z,95738.78
2022-11-07T03:59:32.005Z,95745.06
2022-11-07T04:01:58.511Z,95744.25
2022-11-07T04:04:24.977Z,95751.72
2022-11-07T04:06:51.474Z,95753.22
2022-11-07T04:09:17.947Z,95742.97
2022-11-07T04:11:44.379Z,95754.00
2022-11-07T04:14:30.848Z,95761.13
2022-11-07T04:16:57.313Z,95762.97
2022-11-07T04:19:23.749Z,95770.50
2022-11-07T04:21:50.190Z,95771.31
2022-11-07T04:24:16.635Z,95768.50
2022-11-07T04:26:43.119Z,95769.50
2022-11-07T04:29:09.578Z,95769.56
2022-11-07T04:31:36.131Z,95775.19
2022-11-07T04:34:02.567Z,95777.50
2022-11-07T04:36:29.011Z,95779.63
2022-11-07T04:38:55.458Z,95779.81
2022-11-07T04:41:24.085Z,95783.09
2022-11-07T04:43:51.438Z,95788.88
2022-11-07T04:46:17.906Z,95787.56
2022-11-07T04:48:44.571Z,95786.41
2022-11-07T04:51:21.262Z,95788.72
2022-11-07T04:53:47.934Z,95777.50
2022-11-07T04:56:14.445Z,95778.81
2022-11-07T04:58:40.935Z,95769.94
2022-11-07T05:01:07.440Z,95774.91
2022-11-07T05:03:38.904Z,95768.66
2022-11-07T05:06:11.515Z,95777.22
2022-11-07T05:08:38.015Z,95776.59
2022-11-07T05:11:04.530Z,95781.16
2022-11-07T05:13:30.970Z,95781.50
2022-11-07T05:15:57.652Z,95779.84
2022-11-07T05:18:24.147Z,95794.66
2022-11-07T05:20:50.724Z,95799.75
2022-11-07T05:23:17.668Z,95798.16
2022-11-07T05:25:46.177Z,95795.66
2022-11-07T05:28:15.525Z,95791.72
2022-11-07T05:30:43.877Z,95791.38
2022-11-07T05:33:12.421Z,95792.03
2022-11-07T05:35:39.213Z,95793.34
2022-11-07T05:38:06.061Z,95796.31
2022-11-07T05:40:36.313Z,95792.53
2022-11-07T05:43:05.672Z,95790.72
2022-11-07T05:45:33.176Z,95798.22
2022-11-07T05:48:03.079Z,95793.84
2022-11-07T05:50:30.221Z,95788.13
2022-11-07T05:52:57.119Z,95796.16
2022-11-07T05:55:25.078Z,95800.78
2022-11-07T05:57:52.223Z,95802.91
2022-11-07T06:00:19.521Z,95798.97
2022-11-07T06:02:54.551Z,95801.91
2022-11-07T06:05:24.132Z,95813.78
2022-11-07T06:07:51.067Z,95818.19
2022-11-07T06:10:18.305Z,95822.66
2022-11-07T06:12:44.777Z,95822.66
2022-11-07T06:15:11.674Z,95825.13
2022-11-07T06:17:39.079Z,95829.56
2022-11-07T06:20:06.183Z,95831.53
2022-11-07T06:22:32.855Z,95828.56
2022-11-07T06:24:59.387Z,95833.19
2022-11-07T06:27:25.842Z,95837.81
2022-11-07T06:29:52.286Z,95842.94
2022-11-07T06:32:18.771Z,95847.69
2022-11-07T06:34:45.220Z,95847.38
2022-11-07T06:37:11.666Z,95850.00
2022-11-07T06:39:38.170Z,95851.97
2022-11-07T06:42:04.713Z,95854.59
2022-11-07T06:44:31.175Z,95857.56
2022-11-07T06:46:57.645Z,95854.28
2022-11-07T06:49:24.124Z,95859.38
2022-11-07T06:51:53.242Z,95852.13
2022-11-07T06:54:19.807Z,95854.91
2022-11-07T06:56:46.258Z,95859.84
2022-11-07T06:59:12.725Z,95858.22
2022-11-07T07:01:39.324Z,95856.22
2022-11-07T07:04:05.877Z,95875.66
2022-11-07T07:06:32.364Z,95879.25
2022-11-07T07:08:58.855Z,95882.22
2022-11-07T07:11:25.300Z,95887.69
2022-11-07T07:13:51.754Z,95880.91
2022-11-07T07:16:18.238Z,95885.88
2022-11-07T07:18:44.735Z,95885.88
2022-11-07T07:21:13.363Z,95897.38
2022-11-07T07:23:40.685Z,95890.81
2022-11-07T07:26:15.091Z,95887.47
2022-11-07T07:28:42.683Z,95889.91
2022-11-07T07:31:30.301Z,95896.16
2022-11-07T07:33:57.042Z,95890.69
2022-11-07T07:36:23.816Z,95893.78
2022-11-07T07:38:51.452Z,95899.69
2022-11-07T07:41:18.949Z,95897.50
2022-11-07T07:43:45.616Z,95894.13
2022-11-07T07:46:19.602Z,95908.78
2022-11-07T07:48:46.076Z,95913.13
2022-11-07T07:51:12.537Z,95899.66
2022-11-07T07:53:39.041Z,95901.19
2022-11-07T07:56:06.003Z,95890.22
2022-11-07T07:58:32.960Z,95890.44
2022-11-07T08:00:59.621Z,95889.69
2022-11-07T08:03:32.154Z,95891.75
2022-11-07T08:06:06.550Z,95898.09
2022-11-07T08:08:37.927Z,95901.81
2022-11-07T08:11:08.328Z,95901.19
2022-11-07T08:13:34.954Z,95894.88
2022-11-07T08:16:04.717Z,95891.22
2022-11-07T08:18:31.196Z,95884.56
2022-11-07T08:20:57.667Z,95884.84
2022-11-07T08:23:24.756Z,95882.16
2022-11-07T08:25:56.506Z,95881.31
2022-11-07T08:28:26.527Z,95879.25
2022-11-07T08:31:05.868Z,95872.22
2022-11-07T08:33:33.159Z,95877.78
2022-11-07T08:36:01.827Z,95882.53
2022-11-07T08:38:30.714Z,95884.16
2022-11-07T08:40:58.469Z,95880.03
2022-11-07T08:43:25.170Z,95883.25
2022-11-07T08:45:53.470Z,95881.69
2022-11-07T08:48:19.922Z,95884.53
2022-11-07T08:50:51.374Z,95888.44
2022-11-07T08:53:18.031Z,95895.63
2022-11-07T08:55:44.729Z,95888.53
2022-11-07T08:58:11.202Z,95881.09
2022-11-07T09:00:37.705Z,95885.91
2022-11-07T09:03:38.714Z,95889.47
2022-11-07T09:05:52.837Z,95887.41
2022-11-07T09:08:19.456Z,95886.72
2022-11-07T09:10:45.915Z,95884.72
2022-11-07T09:13:12.504Z,95885.59
2022-11-07T09:15:39.008Z,95883.69
2022-11-07T09:18:06.940Z,95887.03
2022-11-07T09:20:34.288Z,95884.16
2022-11-07T09:23:00.781Z,95876.00
2022-11-07T09:25:28.028Z,95881.94
2022-11-07T09:27:54.514Z,95875.59
2022-11-07T09:30:21.695Z,95878.13
2022-11-07T09:32:48.184Z,95877.19
2022-11-07T09:35:14.974Z,95876.47
2022-11-07T09:37:41.899Z,95870.16
2022-11-07T09:40:44.592Z,95870.00
2022-11-07T09:43:43.826Z,95864.97
2022-11-07T09:46:26.217Z,95873.41
2022-11-07T09:48:59.272Z,95866.06
2022-11-07T09:51:36.233Z,95864.41
2022-11-07T09:54:18.432Z,95871.00
2022-11-07T09:56:45.198Z,95864.44
2022-11-07T09:59:25.759Z,95870.38
2022-11-07T10:01:52.390Z,95861.31
2022-11-07T10:04:25.214Z,95860.75
2022-11-07T10:07:04.087Z,95861.16
2022-11-07T10:09:45.682Z,95864.44
2022-11-07T10:12:44.556Z,95864.91
2022-11-07T10:15:25.272Z,95862.56
2022-11-07T10:18:26.182Z,95866.47
2022-11-07T10:21:37.135Z,95875.88
2022-11-07T10:24:20.964Z,95877.13
2022-11-07T10:26:47.429Z,95875.38
2022-11-07T10:29:19.556Z,95869.06
2022-11-07T10:31:57.645Z,95864.16
2022-11-07T10:34:43.682Z,95874.94
2022-11-07T10:37:10.156Z,95870.28
2022-11-07T10:39:36.608Z,95861.53
2022-11-07T10:42:13.924Z,95867.81
2022-11-07T10:44:42.571Z,95862.72
2022-11-07T10:47:23.377Z,95857.13
2022-11-07T10:50:21.486Z,95857.69
2022-11-07T10:52:57.657Z,95856.16
2022-11-07T10:55:25.504Z,95856.88
2022-11-07T10:58:04.365Z,95850.38
2022-11-07T11:00:37.643Z,95851.38
2022-11-07T11:03:17.038Z,95841.06
2022-11-07T11:05:45.307Z,95838.31
2022-11-07T11:08:23.041Z,95836.75
2022-11-07T11:10:50.311Z,95836.53
2022-11-07T11:13:31.865Z,95837.41
2022-11-07T11:16:15.314Z,95839.50
2022-11-07T11:18:54.693Z,95832.94
2022-11-07T11:21:22.414Z,95827.72
2022-11-07T11:23:49.468Z,95826.13
2022-11-07T11:26:26.170Z,95817.13
2022-11-07T11:29:01.726Z,95815.13
2022-11-07T11:31:39.250Z,95815.94
2022-11-07T11:34:25.693Z,95813.47
2022-11-07T11:37:14.437Z,95811.84
2022-11-07T11:39:47.318Z,95806.13
2022-11-07T11:42:39.948Z,95807.72
2022-11-07T11:45:17.504Z,95806.91
2022-11-07T11:48:31.816Z,95800.00
2022-11-07T11:51:07.501Z,95795.88
2022-11-07T11:53:33.992Z,95789.72
2022-11-07T11:56:06.301Z,95787.72
2022-11-07T11:58:42.328Z,95779.13
2022-11-07T12:01:29.122Z,95770.94
2022-11-07T12:04:08.377Z,95766.00
2022-11-07T12:06:45.857Z,95774.44
2022-11-07T12:09:22.747Z,95771.78
2022-11-07T12:12:09.356Z,95767.72
2022-11-07T12:14:41.824Z,95766.47
2022-11-07T12:17:34.628Z,95767.66
2022-11-07T12:20:07.311Z,95764.16
2022-11-07T12:22:49.377Z,95756.16
2022-11-07T12:25:40.428Z,95746.22
2022-11-07T12:28:30.145Z,95743.91
2022-11-07T12:31:27.185Z,95747.31
2022-11-07T12:34:02.867Z,95735.63
2022-11-07T12:36:53.231Z,95734.53
2022-11-07T12:39:52.542Z,95731.31
2022-11-07T12:42:37.185Z,95735.28
2022-11-07T12:45:30.115Z,95724.50
2022-11-07T12:48:20.939Z,95716.91
2022-11-07T12:51:00.428Z,95712.09
2022-11-07T12:53:45.381Z,95714.16
2022-11-07T12:56:19.968Z,95714.00
2022-11-07T12:58:48.181Z,95707.06
2022-11-07T13:01:23.970Z,95709.69
2022-11-07T13:03:50.542Z,95700.72
2022-11-07T13:06:51.003Z,95710.72
2022-11-07T13:09:31.741Z,95709.09
2022-11-07T13:12:18.007Z,95700.38
2022-11-07T13:14:44.855Z,95701.84
2022-11-07T13:17:23.658Z,95696.41
2022-11-07T13:20:01.907Z,95692.97
2022-11-07T13:22:39.507Z,95696.41
2022-11-07T13:25:13.429Z,95692.00
2022-11-07T13:27:45.547Z,95691.56
2022-11-07T13:30:12.020Z,95694.97
2022-11-07T13:32:40.540Z,95694.63
2022-11-07T13:35:09.732Z,95687.63
2022-11-07T13:37:42.607Z,95690.44
2022-11-07T13:40:34.082Z,95684.63
2022-11-07T13:43:24.053Z,95675.06
2022-11-07T13:45:59.098Z,95678.78
2022-11-07T13:48:42.263Z,95674.81
2022-11-07T13:51:17.979Z,95677.47
2022-11-07T13:53:58.055Z,95677.31
2022-11-07T13:56:29.636Z,95677.25
2022-11-07T13:58:57.856Z,95667.03
2022-11-07T14:01:24.624Z,95667.31
2022-11-07T14:03:51.459Z,95670.38
2022-11-07T14:06:18.201Z,95661.28
2022-11-07T14:08:47.827Z,95665.41
2022-11-07T14:11:23.363Z,95661.47
2022-11-07T14:13:54.597Z,95658.28
2022-11-07T14:16:27.184Z,95658.66
2022-11-07T14:19:01.947Z,95650.88
2022-11-07T14:21:32.257Z,95649.00
2022-11-07T14:24:00.634Z,95648.31
2022-11-07T14:26:30.039Z,95652.44
2022-11-07T14:28:57.041Z,95650.34
2022-11-07T14:31:33.090Z,95658.22
2022-11-07T14:34:02.788Z,95652.91
2022-11-07T14:36:30.047Z,95656.84
2022-11-07T14:39:04.150Z,95648.50
2022-11-07T14:41:31.118Z,95649.28
2022-11-07T14:44:03.512Z,95638.16
2022-11-07T14:46:30.721Z,95644.31
2022-11-07T14:48:57.511Z,95634.91
2022-11-07T14:51:27.780Z,95638.31
2022-11-07T14:54:06.690Z,95633.72
2022-11-07T14:56:41.619Z,95638.94
2022-11-07T14:59:19.911Z,95630.25
2022-11-07T15:01:57.471Z,95638.53
2022-11-07T15:04:37.310Z,95641.97
2022-11-07T15:07:33.587Z,95635.34
2022-11-07T15:10:14.242Z,95637.19
2022-11-07T15:13:00.387Z,95641.00
2022-11-07T15:15:32.315Z,95638.34
2022-11-07T15:18:04.870Z,95631.28
2022-11-07T15:20:33.285Z,95639.38
2022-11-07T15:23:03.553Z,95626.94
2022-11-07T15:25:42.752Z,95629.91
2022-11-07T15:28:26.273Z,95627.38
2022-11-07T15:30:57.674Z,95622.41
2022-11-07T15:33:24.771Z,95625.44
2022-11-07T15:35:56.543Z,95618.34
2022-11-07T15:38:28.706Z,95619.84
2022-11-07T15:40:55.499Z,95623.47
2022-11-07T15:43:22.297Z,95626.56
2022-11-07T15:45:51.561Z,95628.94
2022-11-07T15:48:22.815Z,95619.72
2022-11-07T15:50:49.757Z,95619.00
2022-11-07T15:53:21.878Z,95620.13
2022-11-07T15:55:52.964Z,95630.53
2022-11-07T15:58:23.357Z,95624.44
2022-11-07T16:00:51.065Z,95627.56
2022-11-07T16:03:19.875Z,95620.63
2022-11-07T16:05:49.903Z,95622.81
2022-11-07T16:08:21.069Z,95623.69
2022-11-07T16:11:02.045Z,95618.31
2022-11-07T16:13:29.088Z,95614.94
2022-11-07T16:16:01.958Z,95615.13
2022-11-07T16:18:36.465Z,95615.81
2022-11-07T16:21:03.299Z,95618.00
2022-11-07T16:23:29.848Z,95624.38
2022-11-07T16:25:56.366Z,95629.88
2022-11-07T16:28:22.801Z,95624.69
2022-11-07T16:30:50.039Z,95629.31
2022-11-07T16:33:16.862Z,95615.41
2022-11-07T16:35:43.578Z,95631.44
2022-11-07T16:38:14.478Z,95624.50
2022-11-07T16:40:41.870Z,95628.03
2022-11-07T16:43:08.531Z,95629.91
2022-11-07T16:45:37.093Z,95626.03
2022-11-07T16:48:17.783Z,95627.06
2022-11-07T16:50:44.483Z,95625.03
2022-11-07T16:53:12.528Z,95627.66
2022-11-07T16:55:42.226Z,95633.53
2022-11-07T16:58:24.467Z,95639.69
2022-11-07T17:00:52.196Z,95642.50
2022-11-07T17:03:18.959Z,95641.69
2022-11-07T17:05:46.571Z,95645.34
2022-11-07T17:08:23.023Z,95643.91
2022-11-07T17:10:49.807Z,95644.06
2022-11-07T17:13:16.304Z,95639.09
2022-11-07T17:15:44.164Z,95638.06
2022-11-07T17:18:21.846Z,95637.84
2022-11-07T17:20:51.873Z,95643.91
2022-11-07T17:23:19.328Z,95639.81
2022-11-07T17:25:54.033Z,95642.13
2022-11-07T17:28:21.312Z,95641.88
2022-11-07T17:30:48.492Z,95648.38
2022-11-07T17:33:15.029Z,95653.25
2022-11-07T17:35:41.807Z,95648.34
2022-11-07T17:38:14.818Z,95647.13
2022-11-07T17:40:41.678Z,95654.81
2022-11-07T17:43:08.271Z,95653.97
2022-11-07T17:45:34.978Z,95652.72
2022-11-07T17:48:01.524Z,95662.47
2022-11-07T17:50:28.029Z,95658.97
2022-11-07T17:52:54.530Z,95654.03
2022-11-07T17:55:21.215Z,95657.84
2022-11-07T17:57:47.820Z,95659.88
2022-11-07T18:00:17.711Z,95657.38
2022-11-07T18:02:45.799Z,95648.38
2022-11-07T18:05:17.416Z,95658.16
2022-11-07T18:07:44.660Z,95658.94
2022-11-07T18:10:13.424Z,95653.75
2022-11-07T18:12:39.908Z,95654.13
2022-11-07T18:15:07.026Z,95658.53
2022-11-07T18:17:34.327Z,95663.19
2022-11-07T18:20:01.705Z,95652.28
2022-11-07T18:22:28.224Z,95665.16
2022-11-07T18:24:54.743Z,95662.94
2022-11-07T18:27:21.253Z,95666.22
2022-11-07T18:29:48.826Z,95676.81
2022-11-07T18:32:15.384Z,95666.31
2022-11-07T18:34:41.994Z,95666.63
2022-11-07T18:37:08.506Z,95675.47
2022-11-07T18:39:35.107Z,95675.31
2022-11-07T18:42:01.606Z,95676.88
2022-11-07T18:44:28.120Z,95682.88
2022-11-07T18:46:54.621Z,95680.25
2022-11-07T18:49:21.096Z,95679.59
2022-11-07T18:51:47.550Z,95676.72
2022-11-07T18:54:14.290Z,95676.06
2022-11-07T18:56:42.570Z,95673.16
2022-11-07T18:59:09.753Z,95683.38
2022-11-07T19:01:36.923Z,95685.72
2022-11-07T19:04:04.434Z,95684.44
2022-11-07T19:06:31.994Z,95676.78
2022-11-07T19:08:58.634Z,95690.84
2022-11-07T19:11:28.217Z,95693.13
2022-11-07T19:13:58.933Z,95683.91
2022-11-07T19:16:25.452Z,95688.47
2022-11-07T19:18:52.447Z,95677.25
2022-11-07T19:21:20.795Z,95687.75
2022-11-07T19:23:48.462Z,95679.97
2022-11-07T19:26:16.353Z,95687.00
2022-11-07T19:28:42.876Z,95688.25
2022-11-07T19:31:11.972Z,95700.06
2022-11-07T19:33:40.119Z,95700.06
2022-11-07T19:36:11.618Z,95696.38
2022-11-07T19:38:38.086Z,95696.81
2022-11-07T19:41:06.611Z,95699.00
2022-11-07T19:43:34.583Z,95699.00
2022-11-07T19:46:06.984Z,95691.44
2022-11-07T19:48:33.497Z,95695.97
2022-11-07T19:51:03.608Z,95694.22
2022-11-07T19:53:30.119Z,95688.94
2022-11-07T19:55:56.707Z,95687.66
2022-11-07T19:58:23.284Z,95691.94
2022-11-07T20:00:49.816Z,95675.84
2022-11-07T20:03:16.980Z,95677.09
2022-11-07T20:05:43.784Z,95690.25
2022-11-07T20:08:10.294Z,95685.03
2022-11-07T20:10:36.764Z,95677.59
2022-11-07T20:13:03.262Z,95680.03
2022-11-07T20:15:29.876Z,95685.41
2022-11-07T20:17:56.349Z,95683.31
2022-11-07T20:20:22.924Z,95686.97
2022-11-07T20:22:49.427Z,95677.38
2022-11-07T20:25:16.098Z,95679.13
2022-11-07T20:27:42.793Z,95677.28
2022-11-07T20:30:10.160Z,95676.84
2022-11-07T20:32:36.824Z,95666.34
2022-11-07T20:35:03.668Z,95671.25
2022-11-07T20:37:30.160Z,95671.50
2022-11-07T20:39:56.637Z,95677.34
2022-11-07T20:42:23.123Z,95677.28
2022-11-07T20:44:50.491Z,95683.56
2022-11-07T20:47:17.246Z,95681.63
2022-11-07T20:49:43.967Z,95686.53
2022-11-07T20:52:10.586Z,95677.28
2022-11-07T20:54:39.041Z,95676.34
2022-11-07T20:57:05.801Z,95674.25
2022-11-07T20:59:32.465Z,95673.78
2022-11-07T21:02:03.259Z,95670.94
2022-11-07T21:04:36.257Z,95676.22
2022-11-07T21:07:10.861Z,95666.84
2022-11-07T21:09:37.453Z,95663.22
2022-11-07T21:12:03.959Z,95668.97
2022-11-07T21:14:30.527Z,95665.47
2022-11-07T21:16:57.032Z,95671.75
2022-11-07T21:19:23.502Z,95677.03
2022-11-07T21:21:50.040Z,95677.03
2022-11-07T21:24:16.569Z,95669.19
2022-11-07T21:26:43.241Z,95664.72
2022-11-07T21:29:10.195Z,95670.31
2022-11-07T21:31:39.751Z,95681.06
2022-11-07T21:34:07.733Z,95672.84
2022-11-07T21:36:34.234Z,95671.03
2022-11-07T21:39:01.616Z,95672.84
2022-11-07T21:41:30.144Z,95671.53
2022-11-07T21:43:57.791Z,95670.19
2022-11-07T21:46:27.969Z,95659.34
2022-11-07T21:48:55.612Z,95656.53
2022-11-07T21:51:25.885Z,95660.63
2022-11-07T21:53:52.756Z,95662.28
2022-11-07T21:56:23.917Z,95655.34
2022-11-07T21:58:57.187Z,95652.38
2022-11-07T22:01:24.519Z,95657.56
2022-11-07T22:04:06.079Z,95656.22
2022-11-07T22:06:39.776Z,95645.00
2022-11-07T22:09:07.830Z,95643.66
2022-11-07T22:11:34.629Z,95641.03
2022-11-07T22:14:01.110Z,95638.56
2022-11-07T22:16:27.788Z,95636.75
2022-11-07T22:18:54.429Z,95627.53
2022-11-07T22:21:23.146Z,95623.69
2022-11-07T22:23:50.890Z,95635.31
2022-11-07T22:26:23.247Z,95629.41
2022-11-07T22:28:50.343Z,95627.63
2022-11-07T22:31:19.799Z,95618.06
2022-11-07T22:33:47.283Z,95615.13
2022-11-07T22:36:13.968Z,95606.84
2022-11-07T22:38:41.122Z,95616.41
2022-11-07T22:41:10.245Z,95610.78
2022-11-07T22:43:37.241Z,95612.13
2022-11-07T22:46:06.329Z,95607.41
2022-11-07T22:48:33.301Z,95604.09
2022-11-07T22:51:11.201Z,95597.44
2022-11-07T22:53:37.691Z,95596.78
2022-11-07T22:56:22.777Z,95596.53
2022-11-07T22:58:49.401Z,95602.25
2022-11-07T23:01:19.041Z,95596.97
2022-11-07T23:03:46.090Z,95596.63
2022-11-07T23:06:12.920Z,95587.22
2022-11-07T23:08:39.394Z,95592.50
2022-11-07T23:11:44.893Z,95586.88
2022-11-07T23:14:03.824Z,95586.66
2022-11-07T23:16:32.964Z,95587.63
2022-11-07T23:19:02.248Z,95577.34
2022-11-07T23:21:29.198Z,95578.84
2022-11-07T23:23:58.309Z,95587.41
2022-11-07T23:26:26.435Z,95583.56
2022-11-07T23:28:53.024Z,95575.13
2022-11-07T23:31:19.510Z,95579.75
2022-11-07T23:33:45.976Z,95570.38
2022-11-07T23:36:15.487Z,95563.00
2022-11-07T23:38:43.020Z,95564.66
2022-11-07T23:41:12.903Z,95567.00
2022-11-07T23:43:39.649Z,95566.53
2022-11-07T23:46:06.755Z,95567.66
2022-11-07T23:48:33.340Z,95573.44
2022-11-07T23:51:01.229Z,95574.91
2022-11-07T23:53:30.457Z,95574.91
2022-11-07T23:55:56.939Z,95585.56
2022-11-07T23:58:23.417Z,95583.75
